sensor_id;sensor_type;location;lat;lon;timestamp;pressure;altitude;pressure_sealevel;temperature;humidity
43989;BME280;54163;51.386;7.178;2022-08-02T00:02:16;100880.56;;;19.37;79.39
43989;BME280;54163;51.386;7.178;2022-08-02T00:04:43;100878.88;;;19.36;79.39
43989;BME280;54163;51.386;7.178;2022-08-02T00:07:12;100884.91;;;19.30;79.82
43989;BME280;54163;51.386;7.178;2022-08-02T00:09:39;100887.63;;;19.30;79.96
43989;BME280;54163;51.386;7.178;2022-08-02T00:12:07;100888.03;;;19.35;79.50
43989;BME280;54163;51.386;7.178;2022-08-02T00:14:36;100886.19;;;19.26;79.89
43989;BME280;54163;51.386;7.178;2022-08-02T00:17:04;100892.91;;;19.22;79.98
43989;BME280;54163;51.386;7.178;2022-08-02T00:19:31;100889.63;;;19.18;80.01
43989;BME280;54163;51.386;7.178;2022-08-02T00:21:58;100893.66;;;19.14;80.31
43989;BME280;54163;51.386;7.178;2022-08-02T00:24:27;100881.59;;;19.26;79.67
43989;BME280;54163;51.386;7.178;2022-08-02T00:26:54;100884.91;;;19.30;79.13
43989;BME280;54163;51.386;7.178;2022-08-02T00:29:21;100894.34;;;19.26;79.28
43989;BME280;54163;51.386;7.178;2022-08-02T00:31:48;100888.34;;;19.22;79.91
43989;BME280;54163;51.386;7.178;2022-08-02T00:34:15;100888.63;;;19.19;79.92
43989;BME280;54163;51.386;7.178;2022-08-02T00:36:41;100884.03;;;19.20;79.94
43989;BME280;54163;51.386;7.178;2022-08-02T00:39:08;100884.63;;;19.14;80.15
43989;BME280;54163;51.386;7.178;2022-08-02T00:41:44;100886.59;;;19.21;79.73
43989;BME280;54163;51.386;7.178;2022-08-02T00:44:12;100880.47;;;19.19;79.77
43989;BME280;54163;51.386;7.178;2022-08-02T00:46:40;100877.75;;;19.19;79.67
43989;BME280;54163;51.386;7.178;2022-08-02T00:49:07;100876.59;;;19.22;79.33
43989;BME280;54163;51.386;7.178;2022-08-02T00:51:34;100880.88;;;19.24;79.17
43989;BME280;54163;51.386;7.178;2022-08-02T00:54:01;100876.16;;;19.26;78.87
43989;BME280;54163;51.386;7.178;2022-08-02T00:56:29;100879.88;;;19.25;79.07
43989;BME280;54163;51.386;7.178;2022-08-02T00:58:57;100879.03;;;19.25;79.07
43989;BME280;54163;51.386;7.178;2022-08-02T01:01:24;100880.59;;;19.27;78.69
43989;BME280;54163;51.386;7.178;2022-08-02T01:04:05;100886.75;;;19.29;78.51
43989;BME280;54163;51.386;7.178;2022-08-02T01:06:32;100884.91;;;19.30;78.37
43989;BME280;54163;51.386;7.178;2022-08-02T01:09:00;100875.13;;;19.37;78.21
43989;BME280;54163;51.386;7.178;2022-08-02T01:11:28;100888.91;;;19.36;77.99
43989;BME280;54163;51.386;7.178;2022-08-02T01:14:00;100880.00;;;19.33;78.31
43989;BME280;54163;51.386;7.178;2022-08-02T01:16:31;100872.72;;;19.24;78.75
43989;BME280;54163;51.386;7.178;2022-08-02T01:19:05;100872.88;;;19.23;78.95
43989;BME280;54163;51.386;7.178;2022-08-02T01:21:48;100868.44;;;19.22;79.02
43989;BME280;54163;51.386;7.178;2022-08-02T01:24:41;100876.00;;;19.18;78.96
43989;BME280;54163;51.386;7.178;2022-08-02T01:27:23;100868.72;;;19.09;79.28
43989;BME280;54163;51.386;7.178;2022-08-02T01:29:57;100861.88;;;19.05;79.30
43989;BME280;54163;51.386;7.178;2022-08-02T01:32:30;100851.13;;;19.04;79.38
43989;BME280;54163;51.386;7.178;2022-08-02T01:35:02;100852.00;;;18.95;79.95
43989;BME280;54163;51.386;7.178;2022-08-02T01:37:38;100856.00;;;18.91;79.89
43989;BME280;54163;51.386;7.178;2022-08-02T01:40:10;100860.16;;;18.85;80.25
43989;BME280;54163;51.386;7.178;2022-08-02T01:42:41;100863.16;;;18.82;80.46
43989;BME280;54163;51.386;7.178;2022-08-02T01:45:11;100857.03;;;18.80;80.68
43989;BME280;54163;51.386;7.178;2022-08-02T01:47:40;100853.44;;;18.79;80.56
43989;BME280;54163;51.386;7.178;2022-08-02T01:50:12;100856.16;;;18.79;80.77
43989;BME280;54163;51.386;7.178;2022-08-02T01:52:44;100857.31;;;18.77;80.54
43989;BME280;54163;51.386;7.178;2022-08-02T01:55:17;100852.00;;;18.66;80.98
43989;BME280;54163;51.386;7.178;2022-08-02T01:57:48;100858.28;;;18.66;80.76
43989;BME280;54163;51.386;7.178;2022-08-02T02:00:20;100860.88;;;18.68;80.70
43989;BME280;54163;51.386;7.178;2022-08-02T02:02:49;100860.44;;;18.72;80.38
43989;BME280;54163;51.386;7.178;2022-08-02T02:05:20;100854.59;;;18.67;80.63
43989;BME280;54163;51.386;7.178;2022-08-02T02:07:49;100849.56;;;18.63;80.83
43989;BME280;54163;51.386;7.178;2022-08-02T02:10:21;100854.88;;;18.64;80.94
43989;BME280;54163;51.386;7.178;2022-08-02T02:12:51;100842.84;;;18.76;80.11
43989;BME280;54163;51.386;7.178;2022-08-02T02:15:20;100838.56;;;18.74;80.02
43989;BME280;54163;51.386;7.178;2022-08-02T02:17:50;100843.16;;;18.83;79.32
43989;BME280;54163;51.386;7.178;2022-08-02T02:20:19;100839.69;;;18.91;78.68
43989;BME280;54163;51.386;7.178;2022-08-02T02:22:47;100845.41;;;18.78;79.05
43989;BME280;54163;51.386;7.178;2022-08-02T02:25:15;100840.84;;;18.78;79.02
43989;BME280;54163;51.386;7.178;2022-08-02T02:27:47;100846.97;;;18.80;79.04
43989;BME280;54163;51.386;7.178;2022-08-02T02:30:16;100844.72;;;18.76;79.03
43989;BME280;54163;51.386;7.178;2022-08-02T02:32:46;100843.44;;;18.70;79.27
43989;BME280;54163;51.386;7.178;2022-08-02T02:35:15;100845.56;;;18.67;79.37
43989;BME280;54163;51.386;7.178;2022-08-02T02:37:44;100843.25;;;18.62;79.57
43989;BME280;54163;51.386;7.178;2022-08-02T02:40:14;100833.84;;;18.66;79.21
43989;BME280;54163;51.386;7.178;2022-08-02T02:42:42;100830.53;;;18.72;78.76
43989;BME280;54163;51.386;7.178;2022-08-02T02:45:11;100834.25;;;18.62;79.23
43989;BME280;54163;51.386;7.178;2022-08-02T02:47:39;100827.53;;;18.56;79.36
43989;BME280;54163;51.386;7.178;2022-08-02T02:50:09;100827.97;;;18.52;79.40
43989;BME280;54163;51.386;7.178;2022-08-02T02:52:38;100822.22;;;18.45;79.64
43989;BME280;54163;51.386;7.178;2022-08-02T02:55:07;100816.75;;;18.36;80.23
43989;BME280;54163;51.386;7.178;2022-08-02T02:57:35;100822.19;;;18.26;80.67
43989;BME280;54163;51.386;7.178;2022-08-02T03:00:04;100823.34;;;18.33;80.55
43989;BME280;54163;51.386;7.178;2022-08-02T03:02:32;100814.75;;;18.38;80.18
43989;BME280;54163;51.386;7.178;2022-08-02T03:05:01;100807.34;;;18.40;79.95
43989;BME280;54163;51.386;7.178;2022-08-02T03:07:31;100807.75;;;18.35;80.17
43989;BME280;54163;51.386;7.178;2022-08-02T03:09:58;100808.72;;;18.24;80.55
43989;BME280;54163;51.386;7.178;2022-08-02T03:12:25;100807.03;;;18.23;80.96
43989;BME280;54163;51.386;7.178;2022-08-02T03:14:53;100806.19;;;18.33;80.41
43989;BME280;54163;51.386;7.178;2022-08-02T03:17:20;100808.19;;;18.31;80.38
43989;BME280;54163;51.386;7.178;2022-08-02T03:19:47;100817.91;;;18.33;80.07
43989;BME280;54163;51.386;7.178;2022-08-02T03:22:13;100813.03;;;18.27;79.91
43989;BME280;54163;51.386;7.178;2022-08-02T03:24:42;100808.19;;;18.31;79.74
43989;BME280;54163;51.386;7.178;2022-08-02T03:27:09;100819.88;;;18.21;80.27
43989;BME280;54163;51.386;7.178;2022-08-02T03:29:36;100818.34;;;18.38;79.24
43989;BME280;54163;51.386;7.178;2022-08-02T03:32:04;100816.47;;;18.29;79.20
43989;BME280;54163;51.386;7.178;2022-08-02T03:34:31;100815.03;;;18.25;79.50
43989;BME280;54163;51.386;7.178;2022-08-02T03:36:59;100813.31;;;18.24;79.40
43989;BME280;54163;51.386;7.178;2022-08-02T03:39:27;100809.47;;;18.26;79.31
43989;BME280;54163;51.386;7.178;2022-08-02T03:41:55;100812.31;;;18.25;79.15
43989;BME280;54163;51.386;7.178;2022-08-02T03:44:24;100802.47;;;18.24;78.75
43989;BME280;54163;51.386;7.178;2022-08-02T03:46:52;100797.16;;;18.22;78.75
43989;BME280;54163;51.386;7.178;2022-08-02T03:49:21;100788.28;;;18.11;79.23
43989;BME280;54163;51.386;7.178;2022-08-02T03:51:48;100790.00;;;18.12;79.25
43989;BME280;54163;51.386;7.178;2022-08-02T03:54:16;100790.00;;;18.12;79.56
43989;BME280;54163;51.386;7.178;2022-08-02T03:56:44;100799.44;;;18.17;78.79
43989;BME280;54163;51.386;7.178;2022-08-02T03:59:13;100802.72;;;18.11;79.36
43989;BME280;54163;51.386;7.178;2022-08-02T04:01:40;100798.44;;;18.09;79.74
43989;BME280;54163;51.386;7.178;2022-08-02T04:04:08;100802.84;;;18.10;79.60
43989;BME280;54163;51.386;7.178;2022-08-02T04:06:35;100808.44;;;18.08;79.29
43989;BME280;54163;51.386;7.178;2022-08-02T04:09:03;100816.84;;;18.05;79.63
43989;BME280;54163;51.386;7.178;2022-08-02T04:11:29;100812.72;;;18.11;79.29
43989;BME280;54163;51.386;7.178;2022-08-02T04:13:57;100806.00;;;18.05;79.35
43989;BME280;54163;51.386;7.178;2022-08-02T04:16:36;100814.13;;;18.05;79.23
43989;BME280;54163;51.386;7.178;2022-08-02T04:19:06;100813.88;;;18.08;79.29
43989;BME280;54163;51.386;7.178;2022-08-02T04:21:36;100819.72;;;18.13;79.18
43989;BME280;54163;51.386;7.178;2022-08-02T04:24:05;100815.84;;;18.16;78.94
43989;BME280;54163;51.386;7.178;2022-08-02T04:26:35;100811.16;;;18.18;78.98
43989;BME280;54163;51.386;7.178;2022-08-02T04:29:03;100819.16;;;18.19;78.88
43989;BME280;54163;51.386;7.178;2022-08-02T04:31:33;100819.19;;;18.29;78.56
43989;BME280;54163;51.386;7.178;2022-08-02T04:34:01;100826.75;;;18.25;78.58
43989;BME280;54163;51.386;7.178;2022-08-02T04:36:29;100824.19;;;18.43;77.84
43989;BME280;54163;51.386;7.178;2022-08-02T04:38:56;100819.25;;;18.58;77.09
43989;BME280;54163;51.386;7.178;2022-08-02T04:41:35;100827.41;;;18.67;76.72
43989;BME280;54163;51.386;7.178;2022-08-02T04:44:03;100824.25;;;18.72;76.55
43989;BME280;54163;51.386;7.178;2022-08-02T04:46:30;100831.69;;;18.79;76.07
43989;BME280;54163;51.386;7.178;2022-08-02T04:48:59;100820.38;;;18.94;75.53
43989;BME280;54163;51.386;7.178;2022-08-02T04:51:26;100819.09;;;18.98;75.22
43989;BME280;54163;51.386;7.178;2022-08-02T04:53:53;100819.09;;;18.88;75.72
43989;BME280;54163;51.386;7.178;2022-08-02T04:56:20;100823.97;;;18.85;76.21
43989;BME280;54163;51.386;7.178;2022-08-02T04:58:47;100815.97;;;18.83;76.63
43989;BME280;54163;51.386;7.178;2022-08-02T05:01:15;100821.25;;;18.85;76.92
43989;BME280;54163;51.386;7.178;2022-08-02T05:03:42;100831.25;;;18.84;76.93
43989;BME280;54163;51.386;7.178;2022-08-02T05:06:10;100823.09;;;18.74;77.69
43989;BME280;54163;51.386;7.178;2022-08-02T05:08:37;100829.09;;;18.97;76.88
43989;BME280;54163;51.386;7.178;2022-08-02T05:11:04;100832.69;;;18.98;76.57
43989;BME280;54163;51.386;7.178;2022-08-02T05:13:32;100833.97;;;19.03;76.52
43989;BME280;54163;51.386;7.178;2022-08-02T05:15:59;100832.22;;;19.12;76.17
43989;BME280;54163;51.386;7.178;2022-08-02T05:18:28;100831.34;;;19.30;75.46
43989;BME280;54163;51.386;7.178;2022-08-02T05:20:55;100829.34;;;19.42;75.08
43989;BME280;54163;51.386;7.178;2022-08-02T05:23:23;100826.47;;;19.44;75.05
43989;BME280;54163;51.386;7.178;2022-08-02T05:25:50;100821.59;;;19.47;75.15
43989;BME280;54163;51.386;7.178;2022-08-02T05:28:17;100831.63;;;19.47;75.36
43989;BME280;54163;51.386;7.178;2022-08-02T05:30:44;100828.59;;;19.50;75.50
43989;BME280;54163;51.386;7.178;2022-08-02T05:33:11;100826.00;;;19.58;75.23
43989;BME280;54163;51.386;7.178;2022-08-02T05:35:38;100829.97;;;19.73;74.86
43989;BME280;54163;51.386;7.178;2022-08-02T05:38:05;100827.19;;;19.82;74.56
43989;BME280;54163;51.386;7.178;2022-08-02T05:40:33;100832.69;;;19.73;75.39
43989;BME280;54163;51.386;7.178;2022-08-02T05:43:00;100833.44;;;19.56;76.95
43989;BME280;54163;51.386;7.178;2022-08-02T05:45:32;100835.78;;;19.41;77.65
43989;BME280;54163;51.386;7.178;2022-08-02T05:47:59;100835.75;;;19.60;77.04
43989;BME280;54163;51.386;7.178;2022-08-02T05:50:26;100829.75;;;19.84;76.21
43989;BME280;54163;51.386;7.178;2022-08-02T05:52:57;100831.13;;;19.98;75.72
43989;BME280;54163;51.386;7.178;2022-08-02T05:55:34;100826.50;;;20.08;75.45
43989;BME280;54163;51.386;7.178;2022-08-02T05:58:12;100818.72;;;20.13;75.47
43989;BME280;54163;51.386;7.178;2022-08-02T06:00:40;100813.22;;;20.22;75.63
43989;BME280;54163;51.386;7.178;2022-08-02T06:03:15;100817.41;;;20.44;74.54
43989;BME280;54163;51.386;7.178;2022-08-02T06:05:50;100821.00;;;20.62;73.83
43989;BME280;54163;51.386;7.178;2022-08-02T06:08:20;100829.97;;;20.55;74.30
43989;BME280;54163;51.386;7.178;2022-08-02T06:10:50;100813.94;;;20.52;74.85
43989;BME280;54163;51.386;7.178;2022-08-02T06:13:19;100811.81;;;20.63;74.63
43989;BME280;54163;51.386;7.178;2022-08-02T06:15:50;100814.59;;;20.71;75.01
43989;BME280;54163;51.386;7.178;2022-08-02T06:18:18;100814.13;;;20.93;73.84
43989;BME280;54163;51.386;7.178;2022-08-02T06:20:49;100824.63;;;21.06;73.47
43989;BME280;54163;51.386;7.178;2022-08-02T06:23:16;100813.66;;;21.16;72.96
43989;BME280;54163;51.386;7.178;2022-08-02T06:25:45;100819.16;;;21.24;72.95
43989;BME280;54163;51.386;7.178;2022-08-02T06:28:15;100817.38;;;21.15;73.64
43989;BME280;54163;51.386;7.178;2022-08-02T06:30:43;100813.38;;;21.27;73.65
43989;BME280;54163;51.386;7.178;2022-08-02T06:33:10;100811.53;;;21.27;73.89
43989;BME280;54163;51.386;7.178;2022-08-02T06:35:43;100817.88;;;21.36;73.86
43989;BME280;54163;51.386;7.178;2022-08-02T06:38:16;100811.63;;;21.43;74.05
43989;BME280;54163;51.386;7.178;2022-08-02T06:40:47;100812.53;;;21.52;74.63
43989;BME280;54163;51.386;7.178;2022-08-02T06:43:25;100807.72;;;21.80;73.71
43989;BME280;54163;51.386;7.178;2022-08-02T06:45:56;100802.75;;;22.01;73.45
43989;BME280;54163;51.386;7.178;2022-08-02T06:48:23;100796.44;;;22.09;72.80
43989;BME280;54163;51.386;7.178;2022-08-02T06:50:50;100797.00;;;21.86;73.48
43989;BME280;54163;51.386;7.178;2022-08-02T06:53:17;100805.03;;;22.22;71.78
43989;BME280;54163;51.386;7.178;2022-08-02T06:55:44;100803.88;;;22.40;71.35
43989;BME280;54163;51.386;7.178;2022-08-02T06:58:11;100803.06;;;22.64;70.41
43989;BME280;54163;51.386;7.178;2022-08-02T07:00:39;100799.19;;;22.75;69.96
43989;BME280;54163;51.386;7.178;2022-08-02T07:03:07;100803.31;;;22.79;70.31
43989;BME280;54163;51.386;7.178;2022-08-02T07:05:34;100805.19;;;22.94;69.83
43989;BME280;54163;51.386;7.178;2022-08-02T07:08:01;100803.97;;;22.81;68.65
43989;BME280;54163;51.386;7.178;2022-08-02T07:10:28;100810.13;;;23.15;67.94
43989;BME280;54163;51.386;7.178;2022-08-02T07:12:55;100818.00;;;23.18;67.01
43989;BME280;54163;51.386;7.178;2022-08-02T07:15:23;100808.72;;;23.35;65.64
43989;BME280;54163;51.386;7.178;2022-08-02T07:17:51;100803.09;;;23.45;65.92
43989;BME280;54163;51.386;7.178;2022-08-02T07:20:18;100808.72;;;23.60;65.49
43989;BME280;54163;51.386;7.178;2022-08-02T07:22:45;100812.44;;;23.67;63.85
43989;BME280;54163;51.386;7.178;2022-08-02T07:25:12;100809.50;;;23.76;63.31
43989;BME280;54163;51.386;7.178;2022-08-02T07:27:39;100810.31;;;23.93;62.84
43989;BME280;54163;51.386;7.178;2022-08-02T07:30:07;100807.50;;;24.09;62.09
43989;BME280;54163;51.386;7.178;2022-08-02T07:32:34;100807.88;;;23.98;61.80
43989;BME280;54163;51.386;7.178;2022-08-02T07:35:04;100804.06;;;24.07;60.68
43989;BME280;54163;51.386;7.178;2022-08-02T07:37:32;100801.84;;;24.19;61.24
43989;BME280;54163;51.386;7.178;2022-08-02T07:39:59;100801.34;;;24.46;60.72
43989;BME280;54163;51.386;7.178;2022-08-02T07:42:26;100807.97;;;24.51;60.18
43989;BME280;54163;51.386;7.178;2022-08-02T07:44:54;100808.72;;;24.68;59.25
43989;BME280;54163;51.386;7.178;2022-08-02T07:47:21;100815.25;;;24.67;56.66
43989;BME280;54163;51.386;7.178;2022-08-02T07:49:48;100811.78;;;24.73;55.58
43989;BME280;54163;51.386;7.178;2022-08-02T07:52:16;100817.25;;;24.81;55.09
43989;BME280;54163;51.386;7.178;2022-08-02T07:54:43;100807.19;;;24.96;54.51
43989;BME280;54163;51.386;7.178;2022-08-02T07:57:10;100818.03;;;25.12;53.59
43989;BME280;54163;51.386;7.178;2022-08-02T07:59:37;100808.97;;;25.04;53.17
43989;BME280;54163;51.386;7.178;2022-08-02T08:02:04;100803.22;;;25.13;53.00
43989;BME280;54163;51.386;7.178;2022-08-02T08:04:31;100801.25;;;25.22;52.69
43989;BME280;54163;51.386;7.178;2022-08-02T08:06:58;100800.81;;;25.19;53.58
43989;BME280;54163;51.386;7.178;2022-08-02T08:09:27;100801.56;;;25.27;53.05
43989;BME280;54163;51.386;7.178;2022-08-02T08:11:54;100791.94;;;25.31;51.58
43989;BME280;54163;51.386;7.178;2022-08-02T08:14:21;100787.19;;;25.40;50.11
43989;BME280;54163;51.386;7.178;2022-08-02T08:16:48;100796.38;;;25.47;50.29
43989;BME280;54163;51.386;7.178;2022-08-02T08:19:14;100794.81;;;25.67;49.38
43989;BME280;54163;51.386;7.178;2022-08-02T08:21:41;100795.50;;;25.84;49.78
43989;BME280;54163;51.386;7.178;2022-08-02T08:24:08;100795.31;;;25.71;47.72
43989;BME280;54163;51.386;7.178;2022-08-02T08:26:36;100795.94;;;25.73;46.89
43989;BME280;54163;51.386;7.178;2022-08-02T08:29:04;100789.53;;;25.80;46.19
43989;BME280;54163;51.386;7.178;2022-08-02T08:31:31;100794.81;;;25.96;46.26
43989;BME280;54163;51.386;7.178;2022-08-02T08:33:59;100791.13;;;25.89;45.93
43989;BME280;54163;51.386;7.178;2022-08-02T08:36:27;100785.25;;;25.92;46.29
43989;BME280;54163;51.386;7.178;2022-08-02T08:38:54;100788.63;;;25.94;45.98
43989;BME280;54163;51.386;7.178;2022-08-02T08:41:21;100790.75;;;26.22;45.49
43989;BME280;54163;51.386;7.178;2022-08-02T08:43:49;100786.81;;;26.31;44.48
43989;BME280;54163;51.386;7.178;2022-08-02T08:46:23;100785.34;;;26.49;43.42
43989;BME280;54163;51.386;7.178;2022-08-02T08:48:52;100786.16;;;26.50;43.59
43989;BME280;54163;51.386;7.178;2022-08-02T08:51:28;100777.94;;;26.71;42.84
43989;BME280;54163;51.386;7.178;2022-08-02T08:53:58;100790.47;;;26.52;44.19
43989;BME280;54163;51.386;7.178;2022-08-02T08:56:31;100794.19;;;26.81;43.47
43989;BME280;54163;51.386;7.178;2022-08-02T08:59:00;100791.03;;;26.84;43.75
43989;BME280;54163;51.386;7.178;2022-08-02T09:01:27;100779.06;;;26.77;44.13
43989;BME280;54163;51.386;7.178;2022-08-02T09:03:54;100780.34;;;26.59;44.99
43989;BME280;54163;51.386;7.178;2022-08-02T09:06:21;100775.31;;;26.63;45.30
43989;BME280;54163;51.386;7.178;2022-08-02T09:08:48;100781.97;;;26.90;45.08
43989;BME280;54163;51.386;7.178;2022-08-02T09:11:16;100782.69;;;26.98;45.40
43989;BME280;54163;51.386;7.178;2022-08-02T09:13:49;100781.66;;;26.99;45.34
43989;BME280;54163;51.386;7.178;2022-08-02T09:16:27;100774.78;;;27.16;45.46
43989;BME280;54163;51.386;7.178;2022-08-02T09:18:54;100777.94;;;27.13;45.37
43989;BME280;54163;51.386;7.178;2022-08-02T09:21:22;100781.09;;;27.10;45.76
43989;BME280;54163;51.386;7.178;2022-08-02T09:23:50;100777.66;;;27.30;45.60
43989;BME280;54163;51.386;7.178;2022-08-02T09:26:21;100776.38;;;27.32;45.25
43989;BME280;54163;51.386;7.178;2022-08-02T09:28:50;100769.13;;;27.46;44.28
43989;BME280;54163;51.386;7.178;2022-08-02T09:31:21;100770.88;;;27.60;44.51
43989;BME280;54163;51.386;7.178;2022-08-02T09:33:52;100766.50;;;27.72;44.81
43989;BME280;54163;51.386;7.178;2022-08-02T09:36:20;100773.91;;;27.71;44.88
43989;BME280;54163;51.386;7.178;2022-08-02T09:38:53;100777.16;;;27.82;44.23
43989;BME280;54163;51.386;7.178;2022-08-02T09:41:22;100765.88;;;27.70;44.80
43989;BME280;54163;51.386;7.178;2022-08-02T09:43:50;100775.94;;;27.56;45.55
43989;BME280;54163;51.386;7.178;2022-08-02T09:46:18;100766.63;;;27.30;45.99
43989;BME280;54163;51.386;7.178;2022-08-02T09:48:48;100764.50;;;27.32;46.33
43989;BME280;54163;51.386;7.178;2022-08-02T09:51:17;100764.41;;;27.81;45.41
43989;BME280;54163;51.386;7.178;2022-08-02T09:53:46;100780.16;;;28.27;44.65
43989;BME280;54163;51.386;7.178;2022-08-02T09:56:15;100767.72;;;28.04;44.75
43989;BME280;54163;51.386;7.178;2022-08-02T09:58:43;100781.13;;;28.07;44.89
43989;BME280;54163;51.386;7.178;2022-08-02T10:01:10;100780.66;;;28.03;44.96
43989;BME280;54163;51.386;7.178;2022-08-02T10:03:38;100772.91;;;28.13;45.31
43989;BME280;54163;51.386;7.178;2022-08-02T10:06:20;100770.00;;;28.41;45.34
43989;BME280;54163;51.386;7.178;2022-08-02T10:08:48;100781.06;;;28.41;45.19
43989;BME280;54163;51.386;7.178;2022-08-02T10:11:16;100770.22;;;28.33;45.50
43989;BME280;54163;51.386;7.178;2022-08-02T10:13:43;100775.50;;;28.35;45.41
43989;BME280;54163;51.386;7.178;2022-08-02T10:16:10;100768.53;;;28.39;45.32
43989;BME280;54163;51.386;7.178;2022-08-02T10:18:38;100770.66;;;28.43;45.11
43989;BME280;54163;51.386;7.178;2022-08-02T10:21:06;100763.75;;;28.67;44.71
43989;BME280;54163;51.386;7.178;2022-08-02T10:23:38;100769.47;;;28.78;44.57
43989;BME280;54163;51.386;7.178;2022-08-02T10:26:06;100766.09;;;28.76;44.81
43989;BME280;54163;51.386;7.178;2022-08-02T10:28:34;100771.78;;;28.68;43.30
43989;BME280;54163;51.386;7.178;2022-08-02T10:31:04;100772.38;;;28.51;44.20
43989;BME280;54163;51.386;7.178;2022-08-02T10:33:34;100770.88;;;28.48;44.27
43989;BME280;54163;51.386;7.178;2022-08-02T10:36:03;100762.75;;;28.34;44.15
43989;BME280;54163;51.386;7.178;2022-08-02T10:38:32;100762.75;;;28.20;44.80
43989;BME280;54163;51.386;7.178;2022-08-02T10:41:00;100763.34;;;28.16;44.29
43989;BME280;54163;51.386;7.178;2022-08-02T10:43:47;100766.41;;;28.41;44.46
43989;BME280;54163;51.386;7.178;2022-08-02T10:46:29;100758.75;;;28.36;44.23
43989;BME280;54163;51.386;7.178;2022-08-02T10:49:01;100752.63;;;28.54;44.25
43989;BME280;54163;51.386;7.178;2022-08-02T10:51:56;100754.19;;;28.96;43.32
43989;BME280;54163;51.386;7.178;2022-08-02T10:54:24;100753.53;;;28.80;43.60
43989;BME280;54163;51.386;7.178;2022-08-02T10:56:55;100739.75;;;29.00;42.90
43989;BME280;54163;51.386;7.178;2022-08-02T10:59:24;100741.88;;;28.92;43.37
43989;BME280;54163;51.386;7.178;2022-08-02T11:01:52;100744.19;;;29.21;42.11
43989;BME280;54163;51.386;7.178;2022-08-02T11:04:28;100743.78;;;29.11;41.98
43989;BME280;54163;51.386;7.178;2022-08-02T11:07:09;100746.97;;;29.08;42.45
43989;BME280;54163;51.386;7.178;2022-08-02T11:09:37;100740.59;;;29.27;42.33
43989;BME280;54163;51.386;7.178;2022-08-02T11:12:06;100742.09;;;29.29;42.22
43989;BME280;54163;51.386;7.178;2022-08-02T11:14:36;100730.56;;;29.46;41.87
43989;BME280;54163;51.386;7.178;2022-08-02T11:17:08;100732.06;;;29.55;42.64
43989;BME280;54163;51.386;7.178;2022-08-02T11:20:13;100725.81;;;29.79;41.82
43989;BME280;54163;51.386;7.178;2022-08-02T11:22:41;100731.13;;;29.74;42.69
43989;BME280;54163;51.386;7.178;2022-08-02T11:25:31;100732.72;;;29.44;43.36
43989;BME280;54163;51.386;7.178;2022-08-02T11:28:08;100729.47;;;29.66;43.07
43989;BME280;54163;51.386;7.178;2022-08-02T11:30:36;100734.72;;;29.81;43.51
43989;BME280;54163;51.386;7.178;2022-08-02T11:33:03;100732.38;;;30.35;42.21
43989;BME280;54163;51.386;7.178;2022-08-02T11:35:37;100724.41;;;30.52;42.22
43989;BME280;54163;51.386;7.178;2022-08-02T11:38:13;100723.72;;;30.88;40.83
43989;BME280;54163;51.386;7.178;2022-08-02T11:40:40;100729.50;;;31.11;40.03
43989;BME280;54163;51.386;7.178;2022-08-02T11:43:20;100723.97;;;31.11;39.98
43989;BME280;54163;51.386;7.178;2022-08-02T11:45:48;100724.31;;;31.21;40.39
43989;BME280;54163;51.386;7.178;2022-08-02T11:48:29;100726.06;;;31.16;39.67
43989;BME280;54163;51.386;7.178;2022-08-02T11:51:04;100721.84;;;31.13;39.00
43989;BME280;54163;51.386;7.178;2022-08-02T11:53:40;100726.78;;;31.05;38.76
43989;BME280;54163;51.386;7.178;2022-08-02T11:56:08;100712.31;;;30.78;39.53
43989;BME280;54163;51.386;7.178;2022-08-02T11:58:37;100710.69;;;30.64;39.62
43989;BME280;54163;51.386;7.178;2022-08-02T12:01:05;100714.09;;;30.97;38.62
43989;BME280;54163;51.386;7.178;2022-08-02T12:03:34;100725.97;;;31.47;37.90
43989;BME280;54163;51.386;7.178;2022-08-02T12:06:01;100710.97;;;31.91;38.23
43989;BME280;54163;51.386;7.178;2022-08-02T12:08:29;100713.03;;;32.14;37.37
43989;BME280;54163;51.386;7.178;2022-08-02T12:11:00;100711.88;;;32.21;36.85
43989;BME280;54163;51.386;7.178;2022-08-02T12:13:28;100711.16;;;32.26;36.69
43989;BME280;54163;51.386;7.178;2022-08-02T12:16:11;100709.00;;;32.58;36.90
43989;BME280;54163;51.386;7.178;2022-08-02T12:18:55;100699.34;;;32.60;36.09
43989;BME280;54163;51.386;7.178;2022-08-02T12:21:40;100693.25;;;32.52;36.94
43989;BME280;54163;51.386;7.178;2022-08-02T12:24:07;100707.34;;;32.38;37.98
43989;BME280;54163;51.386;7.178;2022-08-02T12:26:41;100708.81;;;32.11;36.67
43989;BME280;54163;51.386;7.178;2022-08-02T12:29:08;100710.09;;;32.38;35.78
43989;BME280;54163;51.386;7.178;2022-08-02T12:31:42;100711.59;;;32.41;36.05
43989;BME280;54163;51.386;7.178;2022-08-02T12:34:12;100709.28;;;32.68;36.64
43989;BME280;54163;51.386;7.178;2022-08-02T12:36:41;100711.34;;;32.42;36.09
43989;BME280;54163;51.386;7.178;2022-08-02T12:39:11;100705.03;;;32.35;35.54
43989;BME280;54163;51.386;7.178;2022-08-02T12:41:39;100716.00;;;32.30;35.89
43989;BME280;54163;51.386;7.178;2022-08-02T12:44:14;100698.22;;;32.49;35.31
43989;BME280;54163;51.386;7.178;2022-08-02T12:46:42;100705.34;;;32.98;34.72
43989;BME280;54163;51.386;7.178;2022-08-02T12:49:16;100701.47;;;33.58;34.44
43989;BME280;54163;51.386;7.178;2022-08-02T12:51:44;100693.22;;;33.86;33.47
43989;BME280;54163;51.386;7.178;2022-08-02T12:54:14;100696.75;;;34.21;33.91
43989;BME280;54163;51.386;7.178;2022-08-02T12:56:41;100703.31;;;33.64;33.61
43989;BME280;54163;51.386;7.178;2022-08-02T12:59:08;100692.28;;;34.09;34.49
43989;BME280;54163;51.386;7.178;2022-08-02T13:01:35;100694.19;;;33.80;33.61
43989;BME280;54163;51.386;7.178;2022-08-02T13:04:04;100691.00;;;33.60;34.72